Tiempo atmosférico en la estación meteorológica de Antequera, Málaga (400 m.)



Fecha
DESCASC
Temp. máxima en grados centígrados (hora)
DESCASC
Temp. mínima en grados centígrados (hora)
DESCASC
Temp. media en grados centígrados
DESCASC
Racha de viento máxima en m/sg (hora)
DESCASC
Velocidad máxima media en intervalos de 10 minutos(hora)
DESCASC
Precipitaciones diarias en mm
DESCASC
Precipitaciones de 00:00 a 06:00 en mm
DESCASC
Precipitaciones de 06:00 a 12:00 en mm
DESCASC
Precipitaciones de 12:00 a 18:00 en mm
DESCASC
Precipitaciones de 18:00 a 24:00 en mm
DESCASC
13-10-2019 27.2 (16:20) 13.9 (08:30) 20.6 12.78 (17:00) 7.22 (17:10) 0 0 0 0 0
12-10-2019 26.1 (16:10) 18.9 (05:20) 22.5 11.67 (12:20) 5.83 (12:30) 0 0 0 0 0
11-10-2019 25.3 (14:50) 18.7 (06:50) 22 12.22 (13:00) 5 (13:10) 0 0 0 0 0
10-10-2019 25.5 (15:10) 17.9 (00:00) 21.7 11.94 (15:40) 5.56 (10:40) 0 0 0 0 0
09-10-2019 29.8 (17:30) 16.3 (00:00) 23 5 (15:50) 2.78 (19:10) 0 0 0 0 0
08-10-2019 26.3 (15:40) 16.5 (00:00) 21.4 12.78 (12:40) 6.39 (10:50) 0 0 0 0 0
07-10-2019 31.2 (16:50) 12.1 (00:00) 21.7 5.83 (17:20) 1.94 (00:10) 0 0 0 0 0
06-10-2019 29.3 (17:30) 12.1 (00:00) 20.7 5.83 (15:10) 2.5 (18:40) 0 0 0 0 0
05-10-2019 27.5 (17:10) 11.8 (00:00) 19.7 5.28 (17:10) 2.5 (16:40) 0 0 0 0 0
04-10-2019 30 (16:50) 10 (00:00) 20 6.11 (16:40) 2.78 (18:10) 0 0 0 0 0
03-10-2019 26.7 (16:30) 10.7 (00:00) 18.7 8.33 (19:20) 3.33 (17:20) 0 0 0 0 0
02-10-2019 26.3 (16:40) 13.9 (00:00) 20.1 7.78 (15:30) 4.17 (15:50) 0 0 0 0 0
01-10-2019 28.9 (15:50) 14.6 (00:00) 21.8 8.61 (17:00) 4.17 (16:20) 0 0 0 0 0
30-09-2019 30.7 (18:00) 13.9 (00:00) 22.3 5 (14:20) 1.94 (14:20) 0 0 0 0 0
29-09-2019 30.9 (17:00) 14.9 (00:00) 22.9 7.22 (14:20) 3.33 (13:00) 0 0 0 0 0
28-09-2019 31.3 (14:50) 13.2 (00:00) 22.2 7.78 (17:40) 4.72 (17:40) 0 0 0 0 0
27-09-2019 30.5 (16:30) 13.9 (00:00) 22.2 4.72 (17:20) 1.94 (18:10) 0 0 0 0 0
26-09-2019 -- (--) -- (--) -- 7.78 (13:50) 3.61 (13:00) 0 0 0 0 0
25-09-2019 28.1 (16:30) 14 (00:00) 21.1 6.67 (16:30) 3.06 (17:30) 0 0 0 0 0
24-09-2019 29.8 (18:10) 12.3 (00:00) 21 5.28 (14:40) 2.22 (14:40) 0 0 0 0 0
23-09-2019 27.1 (17:20) 12.1 (00:00) 19.6 4.72 (15:10) 1.67 (15:30) 0 0 0 0 0
22-09-2019 -- (--) -- (--) -- 10.83 (15:20) 3.61 (15:50) 0 0 0 0 0
21-09-2019 25 (14:50) 17.9 (00:00) 21.4 8.33 (00:20) 3.89 (00:20) 0 0 0 0 0
20-09-2019 24.4 (13:40) 19.9 (00:00) 22.1 10.56 (14:10) 5.28 (14:20) 0 0 0 0 0
19-09-2019 28.7 (16:00) 15.8 (00:00) 22.3 8.61 (15:00) 3.61 (15:20) 0 0 0 0 0
18-09-2019 27.4 (16:50) 16.1 (00:00) 21.8 4.72 (17:20) 2.78 (05:00) 0 0 0 0 0
17-09-2019 26.1 (18:10) 18.7 (00:00) 22.4 8.06 (13:50) 3.61 (10:50) 0.7 0 0 0.7 0
16-09-2019 28.2 (17:20) 18 (00:00) 23.1 8.06 (19:40) 4.17 (19:00) 0 0 0 0 0

Gráficas

Temp. máximas Temp. mínimas Temp. medias Precipitaciones Rachas de viento máximas Velocidades máximas media en intervalos de 10 minutos

Datos horarios

Fecha y hora oficial Temperatura (ºC) Velocidad del viento (km/h) Dirección del viento Racha (km/h) Dirección de racha Precipitación (mm) Presión (hPa) Tendencia (hPa) Humedad (%)
2019-10-15 23:00:00 11.3 0 Calma 5 Oeste 0 973.4 0.8 50
2019-10-15 22:00:00 13.4 0 Calma 8 Noroeste 0 973 0.7 45
2019-10-15 21:00:00 14.6 2 Noroeste 8 Noroeste 0 973 0.9 42
2019-10-15 20:00:00 15.8 0 Calma 8 Noroeste 0 972.6 0.5 39
2019-10-15 19:00:00 17 2 Norte 14 Nordeste 0 972.3 0.1 35
2019-10-15 18:00:00 17.7 3 Norte 19 Nordeste 0 972.1 -0.6 34
2019-10-15 17:00:00 17.9 4 Nordeste 20 Nordeste 0 972.1 -1.2 34
2019-10-15 16:00:00 17.4 4 Noroeste 24 Noroeste 0 972.2 -1.9 36
2019-10-15 15:00:00 17.3 8 Noroeste 18 Noroeste 0 972.7 -1.5 38
2019-10-15 14:00:00 16.4 3 Norte 16 Nordeste 0 973.3 -0.6 39
2019-10-15 13:00:00 16.1 4 Norte 18 Nordeste 0 974.1 0.7 44
2019-10-15 12:00:00 14.8 4 Norte 17 Norte 0 974.2 1.5 56
2019-10-15 11:00:00 13.2 3 Nordeste 12 Norte 0 973.9 1.5 70
2019-10-15 10:00:00 10.5 6 Noroeste 10 Noroeste 0 973.4 1 87
2019-10-15 09:00:00 9.7 3 Noroeste 5 Noroeste 0.1 972.7 0.2 88
2019-10-15 08:00:00 9.8 0 Calma 5 Nordeste 0 972.4 0 89
2019-10-15 07:00:00 10.1 0 Calma 9 Noroeste 0 972.4 0.1 90
2019-10-15 06:00:00 10.8 6 Noroeste 13 Noroeste 0 972.5 0 89
2019-10-15 05:00:00 11.6 3 Noroeste 12 Norte 0 972.4 0.1 88
2019-10-15 04:00:00 12.3 0 Calma 11 Noroeste 0 972.3 0.3 89
2019-10-15 03:00:00 12.9 4 Noroeste 11 Oeste 0 972.5 0.4 88
2019-10-15 02:00:00 13.3 3 Noroeste 12 Oeste 0 972.3 0.5 88
2019-10-15 01:00:00 14.1 4 Oeste 13 Noroeste 0 972 1 87
2019-10-15 00:00:00 15 0 Calma 10 Oeste 0.1 972.1 1.7 87
2019-10-14 23:00:00 14.6 6 Oeste 18 Oeste 0.4 971.8 1.7 85
2019-10-14 22:00:00 15.4 10 Oeste 33 Oeste 0 971 1.8 71
2019-10-14 21:00:00 16.6 11 Oeste 28 Oeste 0 970.4 1.8 61
2019-10-14 20:00:00 17.2 16 Oeste 39 Sudoeste 0 970.1 1.7 55
2019-10-14 19:00:00 18.7 17 Oeste 39 Oeste 0 969.2 1 52
2019-10-14 18:00:00 20.2 17 Oeste 37 Oeste 0 968.6 0 55
2019-10-14 17:00:00 20.3 15 Oeste 40 Oeste 0 968.4 -0.6 63
2019-10-14 16:00:00 21.1 9 Oeste 28 Oeste 0 968.2 -0.8 52
2019-10-14 15:00:00 20.7 12 Oeste 37 Sudoeste 0 968.6 -0.6 55
2019-10-14 14:00:00 21 10 Oeste 27 Oeste 0 969 0.3 52
2019-10-14 13:00:00 20.5 10 Oeste 36 Oeste 0 969 0.6 53
2019-10-14 12:00:00 20.8 9 Oeste 32 Oeste 0 969.2 2.2 52
2019-10-14 11:00:00 19.7 10 Oeste 24 Oeste 0 968.7 1.7 61
2019-10-14 10:00:00 19.2 6 Oeste 24 Sudoeste 0 968.4 1.7 61
2019-10-14 09:00:00 18.2 6 Oeste 16 Sudoeste 0 967 0.5 71
2019-10-14 08:00:00 18.3 3 Sudoeste 10 Sur 0 967 1.8 74
2019-10-14 07:00:00 19.4 3 Sur 23 Sudoeste 0 966.7 1.1 72
2019-10-14 06:00:00 20.3 9 Sudoeste 30 Sudoeste 0 966.5 0.1 64
2019-10-14 05:00:00 20.2 11 Sudeste 30 Sudeste 0 965.2 -1.2 68
2019-10-14 04:00:00 19.6 16 Sudeste 32 Sudeste 0 965.6 -1.1 75
2019-10-14 03:00:00 19.7 9 Sudeste 25 Sur 0.1 966.4 -0.3 73
2019-10-14 02:00:00 20.1 3 Sudoeste 29 Sudoeste 0 966.4 0.3 67
2019-10-14 01:00:00 20.3 9 Sudoeste 32 Sudeste 0 966.7 0.7 65
2019-10-14 00:00:00 21.1 8 Sudoeste 24 Sur 0 966.7 1 53
2019-10-13 23:00:00 22.4 8 Sur 24 Sur 0 966.1 0.6 44
2019-10-13 22:00:00 22.9 5 Sur 26 Sudoeste 0 966 -0.1 40
2019-10-13 21:00:00 23.7 9 Sudoeste 30 Sudoeste 0 965.7 -0.6 35
2019-10-13 20:00:00 24.4 5 Sudoeste 24 Sudoeste 0 965.5 -0.6 32
2019-10-13 19:00:00 25.6 7 Sudoeste 40 Sur 0 966.1 -0.5 30
2019-10-13 18:00:00 26.1 19 Sur 43 Sur 0 966.3 -0.6 34
2019-10-13 17:00:00 26.3 23 Sudeste 46 Sur 0 966.1 -1.8 34
2019-10-13 16:00:00 26.7 15 Sudeste 38 Sudeste 0 966.6 -2.1 36
2019-10-13 15:00:00 26.4 18 Sudeste 44 Sur 0 966.9 -2.1 38
2019-10-13 14:00:00 25.9 12 Sur 32 Sudeste 0 967.9 -1.2 41
2019-10-13 13:00:00 24.6 17 Sudeste 30 Sur 0 968.7 -0.1 46
2019-10-13 12:00:00 21.3 0 Calma 8 Noroeste 0 969 0.6 62
2019-10-13 11:00:00 16.8 4 Noroeste 8 Noroeste 0 969.1 0.9 89
2019-10-13 10:00:00 15.2 0 Calma 11 Norte 0 968.8 0.7 94
2019-10-13 09:00:00 14.4 7 Nordeste 14 Nordeste 0 968.4 0.7 94
2019-10-13 08:00:00 14.1 3 Nordeste 10 Nordeste 0 968.2 0.7 94
2019-10-13 07:00:00 15.3 0 Calma 17 Noroeste 0 968.1 0.2 90
2019-10-13 06:00:00 17.3 5 Noroeste 16 Noroeste 0 967.7 -0.8 86
2019-10-13 05:00:00 18.6 5 Noroeste 12 Noroeste 0 967.5 -1.2 81
2019-10-13 04:00:00 19.1 3 Noroeste 12 Sur 0 967.9 -1 78
2019-10-13 03:00:00 20 4 Sudeste 21 Sur 0 968.5 -0.5 75
2019-10-13 02:00:00 19.3 4 Noroeste 18 Sur 0 968.7 0.1 74
2019-10-13 01:00:00 19.3 0 Calma 9 Sur 0 968.9 0.6 71
2019-10-13 00:00:00 20.1 0 Calma 5 Sudoeste 0 969 1 69
2019-10-12 23:00:00 20.6 0 Calma 6 Oeste 0 968.6 1.1 65
2019-10-12 22:00:00 21.3 0 Calma 8 Sur 0 968.3 1.1 62
2019-10-12 21:00:00 22 0 Calma 10 Sur 0 968 0.9 58
2019-10-12 20:00:00 22.5 2 Sur 19 Sudeste 0 967.5 0.2 58
2019-10-12 19:00:00 23.9 8 Sur 25 Sur 0 967.2 -0.2 55
2019-10-12 18:00:00 25.2 12 Sur 31 Sudeste 0 967.1 -0.7 49
2019-10-12 17:00:00 25.2 17 Sudeste 32 Sudeste 0 967.3 -1.5 52
2019-10-12 16:00:00 25.4 14 Sudeste 35 Sur 0 967.4 -2 51
2019-10-12 15:00:00 24.6 15 Sur 35 Sur 0 967.8 -1.4 52
2019-10-12 14:00:00 23.9 15 Sudeste 35 Sudeste 0 968.8 -0.6 58
2019-10-12 13:00:00 23.2 17 Sur 42 Sur 0 969.4 0.4 63
2019-10-12 12:00:00 23.6 15 Sudeste 31 Sur 0 969.2 0.8 57
2019-10-12 11:00:00 20.7 6 Sudeste 16 Sudoeste 0 969.4 1.3 75
2019-10-12 10:00:00 20.5 0 Calma 10 Este 0 969 1.1 74
2019-10-12 09:00:00 19.3 0 Calma 12 Sudoeste 0 968.4 0.2 76
2019-10-12 08:00:00 19.5 6 Sur 18 Sur 0 968.1 -0.2 76
2019-10-12 07:00:00 19.3 3 Este 13 Este 0 967.9 -1.1 78
2019-10-12 06:00:00 19.2 0 Calma 8 Noroeste 0 968.2 -1.5 79
2019-10-12 05:00:00 19.5 0 Calma 16 Sur 0 968.3 -- 75
2019-10-12 04:00:00 19.5 8 Sudeste 19 Sur 0 969 -1.2 77
2019-10-12 03:00:00 19.4 3 Nordeste 12 Sur 0 969.7 -0.9 75
2019-10-12 02:00:00 -- 0 Calma 17 Sudeste 0 -- -- --
2019-10-12 01:00:00 19.8 7 Sur 18 Sur 0 970.2 0.4 71
2019-10-12 00:00:00 19.9 0 Calma 25 Sur 0 970.6 1 70
2019-10-11 23:00:00 20.2 3 Este 11 Este 0 970.5 1.2 64
2019-10-11 22:00:00 20.8 3 Noroeste 24 Sur 0 969.8 0.2 58
2019-10-11 21:00:00 21.2 0 Calma 9 Este 0 969.6 -0.3 56
2019-10-11 20:00:00 21.8 5 Sudeste 24 Sur 0 969.3 -0.8 58
2019-10-11 19:00:00 22.4 8 Sudeste 20 Sur 0 969.6 -0.7 56
2019-10-11 18:00:00 23.3 9 Sudeste 31 Sur 0 969.9 -0.6 50
2019-10-11 17:00:00 23.2 16 Sur 37 Sudeste 0 970.1 -1.5 49
2019-10-11 16:00:00 23.8 14 Sur 37 Sur 0 970.3 -1.6 49
2019-10-11 15:00:00 24.3 15 Sur 35 Sur 0 970.5 -1.8 46
2019-10-11 14:00:00 23.1 12 Sur 39 Sur 0 971.6 -0.8 52
2019-10-11 13:00:00 22.3 17 Sur 44 Sur 0 971.9 0.1 51
2019-10-11 12:00:00 20.8 12 Sudeste 30 Sudeste 0 972.3 1 62
2019-10-11 11:00:00 20.6 8 Sudeste 23 Sur 0 972.4 1.2 64
2019-10-11 10:00:00 19.7 8 Sudeste 25 Sudeste 0 971.8 0.9 70
2019-10-11 09:00:00 19.2 3 Este 28 Este 0 971.3 0.6 72
2019-10-11 08:00:00 19 3 Sudeste 22 Sudeste 0 971.2 0.5 73
2019-10-11 07:00:00 19 3 Sur 25 Sur 0 970.9 0 75
2019-10-11 06:00:00 19 8 Sudeste 30 Sudeste 0 970.7 -0.5 77
2019-10-11 05:00:00 19.5 10 Sudeste 27 Sur 0 970.7 -0.9 76
2019-10-11 04:00:00 19.6 5 Sur 23 Sudeste 0 970.9 -0.8 79
2019-10-11 03:00:00 19.9 11 Sudeste 31 Sudeste 0 971.2 -0.5 79
2019-10-11 02:00:00 20 6 Sudeste 28 Sudeste 0 971.6 0.2 80
2019-10-11 01:00:00 19.9 13 Sudeste 30 Sudeste 0 971.7 0.5 81
2019-10-11 00:00:00 19.6 3 Sudeste 28 Sudeste 0 971.7 1 82
2019-10-10 23:00:00 19.4 8 Sudeste 17 Sudeste 0 971.4 1.1 85
2019-10-10 22:00:00 19.4 5 Este 14 Este 0 971.2 1.3 82
2019-10-10 21:00:00 19.9 0 Calma 16 Sur 0 970.7 1.1 76
2019-10-10 20:00:00 21 5 Sudeste 15 Sudeste 0 970.3 0.5 69
2019-10-10 19:00:00 22.8 6 Sudeste 25 Sudeste 0 969.9 -0.1 59
2019-10-10 18:00:00 24.1 13 Sudeste 34 Sur 0 969.6 -0.6 55
2019-10-10 17:00:00 24.5 14 Sudeste 37 Sur 0 969.8 -1 52
2019-10-10 16:00:00 25.2 17 Sudeste 43 Sur 0 970 -1.6 51
2019-10-10 15:00:00 25 14 Sur 37 Sur 0 970.2 -1.5 51
2019-10-10 14:00:00 24.3 16 Sur 36 Sur 0 970.8 -0.7 56
2019-10-10 13:00:00 23.2 12 Sur 37 Sur 0 971.6 0.5 62
2019-10-10 12:00:00 22 15 Sur 39 Sudeste 0 971.7 1.3 70
2019-10-10 11:00:00 20.9 19 Sudeste 37 Sudeste 0 971.5 1.5 70
2019-10-10 10:00:00 19.6 16 Sudeste 36 Sur 0 971.1 1.8 69
2019-10-10 09:00:00 18.9 15 Sudeste 30 Sudeste 0 970.4 1.3 72
2019-10-10 08:00:00 18.9 15 Sudeste 33 Sudeste 0 970 1 69
2019-10-10 07:00:00 18.7 3 Sur 26 Sur 0 969.3 -- 68
2019-10-10 06:00:00 18.5 5 Sur 27 Sur 0 969.1 -0.2 67
2019-10-10 05:00:00 18.1 0 Calma 7 Oeste 0 969 -0.2 67
2019-10-10 04:00:00 -- -- -- -- -- -- -- -- --
2019-10-10 03:00:00 18.6 0 Calma 7 Oeste 0 969.3 0.3 65
2019-10-10 02:00:00 18.8 3 Oeste 8 Sudoeste 0 969.2 0.3 64
2019-10-10 01:00:00 19.9 0 Calma 6 Sudoeste 0 969 0.5 60
2019-10-10 00:00:00 20.6 0 Calma 7 Oeste 0 969 0.8 57
2019-10-09 23:00:00 21.4 0 Calma 6 Sudoeste 0 968.9 1.2 55
2019-10-09 22:00:00 22.1 0 Calma 5 Sudoeste 0 968.5 1.1 51
2019-10-09 21:00:00 23.6 0 Calma 11 Sur 0 968.2 1 47
2019-10-09 20:00:00 25.1 0 Calma 16 Sudeste 0 967.7 0.2 44
2019-10-09 19:00:00 27.5 10 Sudeste 18 Sudeste 0 967.4 -0.2 40
2019-10-09 18:00:00 29.2 5 Sudeste 15 Sur 0 967.2 -0.8 39
2019-10-09 17:00:00 29.4 3 Sudeste 15 Sudeste 0 967.5 -1.1 40
2019-10-09 16:00:00 29.2 5 Sudeste 18 Este 0 967.6 -1.7 40
2019-10-09 15:00:00 28.2 4 Sudeste 15 Sudeste 0 968 -1.4 44
2019-10-09 14:00:00 26.8 5 Este 15 Sudeste 0 968.6 -1.1 46
2019-10-09 13:00:00 25.6 3 Sur 18 Sudeste 0 969.3 -0.1 52
2019-10-09 12:00:00 23.9 0 Calma 10 Sur 0 969.4 0.5 58
2019-10-09 11:00:00 21.2 0 Calma 6 Sudoeste 0 969.7 1.3 65
2019-10-09 10:00:00 18.7 0 Calma 8 Noroeste 0 969.4 1.2 70
2019-10-09 09:00:00 17.8 5 Noroeste 12 Noroeste 0 968.9 0.5 72
2019-10-09 08:00:00 17 0 Calma 8 Oeste 0 968.4 -0.1 73
2019-10-09 07:00:00 16.6 5 Oeste 8 Oeste 0 968.2 -0.7 74
2019-10-09 06:00:00 16.8 0 Calma 8 Sur 0 968.4 -0.9 76
2019-10-09 05:00:00 16.8 0 Calma 6 Sudoeste 0 968.5 -1.2 79
2019-10-09 04:00:00 17.5 0 Calma 6 Oeste 0 968.9 -0.9 80
2019-10-09 03:00:00 17.8 0 Calma -- -- 0 969.3 -1 80
2019-10-09 02:00:00 18.2 0 Calma 6 Sudoeste 0 969.7 -0.3 79
2019-10-09 01:00:00 18.7 0 Calma 4 Sur 0 969.8 0.3 79
2019-10-09 00:00:00 19.1 0 Calma 9 Noroeste 0 970.3 1 76
2019-10-08 23:00:00 19.7 0 Calma 8 Sur 0 970 1.1 71
2019-10-08 22:00:00 20.4 0 Calma 8 Sudoeste 0 969.5 0.8 67
2019-10-08 21:00:00 21.3 2 Sudoeste 17 Sur 0 969.3 0.4 61
2019-10-08 20:00:00 22.8 4 Sur 31 Sudeste 0 968.9 -0.3 52
2019-10-08 19:00:00 24 19 Sudeste 38 Sur 0 968.7 -1.1 49
2019-10-08 18:00:00 25.2 18 Sudeste 39 Sudeste 0 968.9 -1.2 46
2019-10-08 17:00:00 25.7 17 Sudeste 41 Sur 0 969.2 -1.5 45
2019-10-08 16:00:00 25.6 22 Sudeste 41 Sur 0 969.8 -1.3 46
2019-10-08 15:00:00 25.4 21 Sudeste 41 Sudeste 0 970.1 -1 47
2019-10-08 14:00:00 25.7 16 Sur 45 Sur 0 970.7 -0.4 49
2019-10-08 13:00:00 24.6 20 Sur 46 Sur 0 971.1 0.2 56
2019-10-08 12:00:00 23.3 21 Sur 41 Sur 0 971.1 0.8 59
2019-10-08 11:00:00 22.1 21 Sudeste 42 Sudeste 0 971.1 1.3 59
2019-10-08 10:00:00 21.8 15 Sudeste 34 Sur 0 970.9 1.4 57
2019-10-08 09:00:00 20.6 13 Sudeste 32 Sur 0 970.3 0.9 57
2019-10-08 08:00:00 19.5 2 Sudoeste 21 Sudeste 0 969.8 0.5 61
2019-10-08 07:00:00 19.9 3 Sur 13 Sur 0 969.5 -0.1 62
2019-10-08 06:00:00 18.9 0 Calma 6 Oeste 0 969.4 -0.3 64
2019-10-08 05:00:00 19.1 0 Calma 8 Sudoeste 0 969.3 -0.2 57
2019-10-08 04:00:00 17.5 0 Calma 6 Oeste 0 969.6 0.1 52
2019-10-08 03:00:00 18.1 0 Calma 8 Sudeste 0 969.7 0.3 52
2019-10-08 02:00:00 19.5 0 Calma 8 Sudoeste 0 969.5 0.1 46
2019-10-08 01:00:00 20 0 Calma 6 Noroeste 0 969.5 0.6 44
2019-10-08 00:00:00 21.8 0 Calma 7 Noroeste 0 969.4 0.8 39
2019-10-07 23:00:00 23.6 3 Oeste 8 Oeste 0 969.4 1 37
2019-10-07 22:00:00 24.8 2 Noroeste 8 Noroeste 0 968.9 0.7 34
2019-10-07 21:00:00 25.8 4 Noroeste 8 Noroeste 0 968.6 0.5 33
2019-10-07 20:00:00 27.7 2 Noroeste 12 Noroeste 0 968.4 0.3 32
2019-10-07 19:00:00 30.2 5 Noroeste 15 Norte 0 968.2 -0.3 29
2019-10-07 18:00:00 30.8 0 Calma 21 Nordeste 0 968.1 -0.7 31
2019-10-07 17:00:00 30.9 3 Norte 19 Nordeste 0 968.1 -1.7 32
2019-10-07 16:00:00 30.4 5 Noroeste 17 Noroeste 0 968.5 -1.8 32
2019-10-07 15:00:00 29.2 3 Norte 16 Nordeste 0 968.8 -1.9 34
2019-10-07 14:00:00 27.5 5 Noroeste 13 Noroeste 0 969.8 -1 36
2019-10-07 13:00:00 25.7 0 Calma 9 Noroeste 0 970.3 -0.2 44
2019-10-07 12:00:00 23.2 0 Calma 6 Este 0 970.7 0.7 50
2019-10-07 11:00:00 19.1 2 Nordeste 6 Este 0 970.8 1 59
2019-10-07 10:00:00 14.2 0 Calma 5 Nordeste 0 970.5 1.1 66
2019-10-07 09:00:00 12.7 3 Nordeste 6 Nordeste 0 970 0.6 71
2019-10-07 08:00:00 12.2 0 Calma 3 Oeste 0 969.8 0 70
2019-10-07 07:00:00 12.8 0 Calma 3 Norte 0 969.4 -0.8 66
2019-10-07 06:00:00 13.9 0 Calma -- -- 0 969.4 -1.3 62
2019-10-07 05:00:00 14.3 0 Calma 3 Nordeste 0 969.8 -1 61
2019-10-07 04:00:00 15.3 0 Calma 2 Este 0 970.2 -1.1 58
2019-10-07 03:00:00 15.5 0 Calma 5 Noroeste 0 970.7 -0.8 56
2019-10-07 02:00:00 17.2 0 Calma 4 Nordeste 0 970.8 -0.2 50
2019-10-07 01:00:00 18.2 0 Calma 12 Nordeste 0 971.3 0.7 46
2019-10-07 00:00:00 19.2 3 Nordeste 7 Nordeste 0 971.5 1.4 45
2019-10-06 23:00:00 20.2 0 Calma -- -- 0 971 1.2 43
2019-10-06 22:00:00 22 0 Calma 4 Noroeste 0 970.6 1 38
2019-10-06 21:00:00 24.5 0 Calma 11 Noroeste 0 970.1 0.4 35
2019-10-06 20:00:00 25.9 6 Noroeste 12 Noroeste 0 969.8 -0.1 34
2019-10-06 19:00:00 28.4 7 Noroeste 18 Oeste 0 969.6 -0.5 32
2019-10-06 18:00:00 29.2 5 Noroeste 15 Noroeste 0 969.7 -0.9 35
2019-10-06 17:00:00 28.8 3 Norte 17 Nordeste 0 969.9 -1.2 37
2019-10-06 16:00:00 28.2 4 Norte 21 Noroeste 0 970.1 -1.5 37
2019-10-06 15:00:00 27.9 2 Norte 18 Nordeste 0 970.6 -1 40
2019-10-06 14:00:00 27.1 4 Norte 16 Noroeste 0 971.1 -0.4 45
2019-10-06 13:00:00 25.6 2 Norte 13 Noroeste 0 971.6 0.5 51
2019-10-06 12:00:00 22.5 0 Calma 6 Este 0 971.6 1.1 59
2019-10-06 11:00:00 19.1 0 Calma 8 Este 0 971.5 1.1 68
2019-10-06 10:00:00 15.4 0 Calma 4 Oeste 0 971.1 1.3 76
2019-10-06 09:00:00 12.8 0 Calma 10 Noroeste 0 970.5 0.8 82
2019-10-06 08:00:00 12.5 0 Calma 4 Este 0 970.4 0.6 81
2019-10-06 07:00:00 13.8 0 Calma 9 Noroeste 0 969.8 -0.2 79
2019-10-06 06:00:00 14.1 0 Calma 0 Calma 0 969.7 -0.8 76
2019-10-06 05:00:00 14.9 0 Calma 8 Nordeste 0 969.8 -0.2 76
2019-10-06 04:00:00 15.4 0 Calma 4 Sudeste 0 970 -0.2 75
2019-10-06 03:00:00 16.3 0 Calma 0 Calma 0 970.5 0.5 71
2019-10-06 02:00:00 16.7 0 Calma 5 Oeste 0 970 0.3 71
2019-10-06 01:00:00 18.3 0 Calma 4 Norte 0 970.2 1 68
2019-10-06 00:00:00 19.3 0 Calma 5 Norte 0 970 1.5 64
2019-10-05 23:00:00 21.1 3 Noroeste 12 Noroeste 0 969.7 1.2 58
2019-10-05 22:00:00 22.4 4 Noroeste 7 Sudoeste 0 969.2 1.1 52
2019-10-05 21:00:00 23.3 0 Calma 6 Noroeste 0 968.5 0.7 50
2019-10-05 20:00:00 24.6 0 Calma 10 Noroeste 0 968.5 0.7 47
2019-10-05 19:00:00 25.7 5 Noroeste 18 Noroeste 0 968.1 0.3 45
2019-10-05 18:00:00 27 2 Norte 19 Oeste 0 967.8 -0.3 41
2019-10-05 17:00:00 27.1 6 Noroeste 17 Oeste 0 967.8 -0.8 44
2019-10-05 16:00:00 26.9 7 Noroeste 16 Noroeste 0 967.8 -1.4 43
2019-10-05 15:00:00 26.9 2 Noroeste 17 Noroeste 0 968.1 -1.2 44
2019-10-05 14:00:00 25.3 3 Noroeste 12 Oeste 0 968.6 -0.6 49
2019-10-05 13:00:00 23.5 4 Oeste 11 Oeste 0 969.2 0.3 53
2019-10-05 12:00:00 21.7 0 Calma 10 Nordeste 0 969.3 0.9 58
2019-10-05 11:00:00 18 0 Calma 5 Sur 0 969.2 1.2 67
2019-10-05 10:00:00 14.7 0 Calma 5 Este 0 968.9 1.1 75
2019-10-05 09:00:00 11.9 0 Calma -- -- 0 968.4 0.4 81
2019-10-05 08:00:00 12.6 0 Calma -- -- 0 968 0 82
2019-10-05 07:00:00 13.1 0 Calma -- -- 0 967.8 -0.6 76
2019-10-05 06:00:00 13.8 0 Calma 6 Noroeste 0 968 -0.7 74
2019-10-05 05:00:00 15 0 Calma 10 Nordeste 0 968 -0.7 70
2019-10-05 04:00:00 15.1 0 Calma 0 Calma 0 968.4 -0.7 68
2019-10-05 03:00:00 16.2 0 Calma 0 Calma 0 968.7 -0.4 67
2019-10-05 02:00:00 17.3 0 Calma -- -- 0 968.7 -0.3 64
2019-10-05 01:00:00 18.4 0 Calma 3 Nordeste 0 969.1 0.4 62
2019-10-05 00:00:00 19.5 0 Calma 3 Nordeste 0 969.1 0.5 57
2019-10-04 23:00:00 20.4 0 Calma 0 Calma 0 969 0.8 51
2019-10-04 22:00:00 22.1 0 Calma 9 Noroeste 0 968.7 1 46
2019-10-04 21:00:00 23.7 0 Calma 6 Noroeste 0 968.6 1.1 41
2019-10-04 20:00:00 25.9 2 Oeste 12 Oeste 0 968.2 0.5 37
2019-10-04 19:00:00 28.8 4 Noroeste 20 Oeste 0 967.7 -0.5 33
2019-10-04 18:00:00 29.1 9 Sudeste 19 Sudeste 0 967.5 -1.4 30
2019-10-04 17:00:00 29.6 5 Sudeste 22 Sudeste 0 967.7 -2 29
2019-10-04 16:00:00 29.6 4 Oeste 18 Sudeste 0 968.2 -1.9 29
2019-10-04 15:00:00 28.5 3 Sur 14 Sudoeste 0 968.9 -1.7 30
2019-10-04 14:00:00 27.3 4 Sudoeste 13 Sudoeste 0 969.7 -1.1 37
2019-10-04 13:00:00 24.9 0 Calma 7 Este 0 970.1 -0.8 45
2019-10-04 12:00:00 22.3 4 Este 10 Este 0 970.6 0 50
2019-10-04 11:00:00 17.4 0 Calma 5 Este 0 970.8 0.4 62
2019-10-04 10:00:00 13.8 0 Calma 4 Este 0 970.9 0.7 70
2019-10-04 09:00:00 10.6 0 Calma 3 Sudeste 0 970.6 0 76
2019-10-04 08:00:00 10.6 0 Calma 5 Noroeste 0 970.4 0.1 75
2019-10-04 07:00:00 12.1 0 Calma 6 Este 0 970.2 -0.4 70
2019-10-04 06:00:00 12.9 2 Noroeste 7 Oeste 0 970.6 -0.4 67
2019-10-04 05:00:00 13.1 0 Calma 2 Noroeste 0 970.3 -0.4 65
2019-10-04 04:00:00 13.9 0 Calma 3 Sudeste 0 970.6 -0.8 63
2019-10-04 03:00:00 16 2 Noroeste 13 Noroeste 0 971 -0.4 57
2019-10-04 02:00:00 17.3 8 Nordeste 11 Norte 0 970.7 -0.4 53
2019-10-04 01:00:00 17.2 4 Nordeste 10 Nordeste 0 971.4 0.6 51
2019-10-04 00:00:00 18.6 5 Nordeste 7 Nordeste 0 971.4 1 49
2019-10-03 23:00:00 18.8 0 Calma 15 Oeste 0 971.1 1.1 47
2019-10-03 22:00:00 20.8 8 Noroeste 18 Noroeste 0 970.8 1 43
2019-10-03 21:00:00 22.1 8 Noroeste 16 Oeste 0 970.4 0.5 41
2019-10-03 20:00:00 23.9 5 Noroeste 30 Noroeste 0 970 -0.3 39
2019-10-03 19:00:00 25.8 8 Noroeste 19 Noroeste 0 969.8 -0.7 38
2019-10-03 18:00:00 26.7 8 Noroeste 23 Noroeste 0 969.9 -1.1 38
2019-10-03 17:00:00 26.3 12 Noroeste 22 Noroeste 0 970.3 -1.4 37
2019-10-03 16:00:00 26.1 5 Noroeste 23 Noroeste 0 970.5 -1.7 39
2019-10-03 15:00:00 25.3 6 Noroeste 22 Noroeste 0 971 -1.6 43
2019-10-03 14:00:00 24.1 3 Noroeste 15 Noroeste 0 971.7 -0.9 47
2019-10-03 13:00:00 22.3 0 Calma 13 Oeste 0 972.2 0.1 55
2019-10-03 12:00:00 19.6 5 Este 12 Nordeste 0 972.6 1.2 62
2019-10-03 11:00:00 16.6 0 Calma 5 Este 0 972.6 1.6 69
2019-10-03 10:00:00 13.4 0 Calma 4 Este 0 972.1 1.3 75
2019-10-03 09:00:00 11.3 2 Este 4 Este 0 971.4 0.8 80
2019-10-03 08:00:00 11.6 0 Calma 7 Nordeste 0 971 0.6 76
2019-10-03 07:00:00 12 3 Nordeste 6 Oeste 0 970.8 0.3 75
2019-10-03 06:00:00 12.4 0 Calma 3 Oeste 0 970.6 -0.4 71
2019-10-03 05:00:00 13.4 0 Calma 3 Este 0 970.4 -0.3 69
2019-10-03 04:00:00 15 0 Calma 9 Nordeste 0 970.5 -0.5 64
2019-10-03 03:00:00 16.1 6 Nordeste 9 Nordeste 0 971 0.2 61
2019-10-03 02:00:00 15.4 0 Calma 9 Nordeste 0 970.7 0.1 62
2019-10-03 01:00:00 18.2 5 Nordeste 9 Norte 0 971 1.1 58
2019-10-03 00:00:00 18.6 4 Nordeste 7 Nordeste 0 970.8 1.4 57
2019-10-02 23:00:00 19.1 0 Calma 12 Noroeste 0 970.6 1.7 50
2019-10-02 22:00:00 21.2 5 Noroeste 15 Noroeste 0 969.9 1.1 44
2019-10-02 21:00:00 21.7 0 Calma 8 Norte 0 969.4 0.6 38
2019-10-02 20:00:00 23.3 4 Noroeste 17 Noroeste 0 968.9 -0.1 34
2019-10-02 19:00:00 25.1 9 Noroeste 23 Noroeste 0 968.8 -0.6 32
2019-10-02 18:00:00 25.4 13 Noroeste 27 Noroeste 0 968.8 -0.7 34
2019-10-02 17:00:00 25.4 10 Noroeste 27 Noroeste 0 969 -0.6 35
2019-10-02 16:00:00 25.3 12 Noroeste 28 Noroeste 0 969.4 -0.6 36
2019-10-02 15:00:00 24.6 10 Noroeste 25 Noroeste 0 969.5 -0.8 41
2019-10-02 14:00:00 24.6 13 Noroeste 25 Noroeste 0 969.6 -0.9 44
2019-10-02 13:00:00 22.9 5 Noroeste 15 Noroeste 0 970 -0.2 51
2019-10-02 12:00:00 21.1 4 Nordeste 13 Este 0 970.3 0.5 58
2019-10-02 11:00:00 19 0 Calma 6 Sudeste 0 970.5 0.9 68
2019-10-02 10:00:00 16.4 0 Calma 6 Este 0 970.2 0.8 75
2019-10-02 09:00:00 14.7 0 Calma 0 Calma 0 969.8 0.6 79
2019-10-02 08:00:00 14.9 0 Calma 2 Oeste 0 969.6 0.5 76
2019-10-02 07:00:00 16 0 Calma 4 Noroeste 0 969.4 0.2 74
2019-10-02 06:00:00 16.4 0 Calma 11 Noroeste 0 969.2 -0.4 70
2019-10-02 05:00:00 17.4 2 Noroeste 14 Noroeste 0 969.1 -0.5 69
2019-10-02 04:00:00 18.1 4 Noroeste 15 Norte 0 969.2 -0.7 68
2019-10-02 03:00:00 19 2 Noroeste 14 Noroeste 0 969.6 0.1 65
2019-10-02 02:00:00 18.1 0 Calma 7 Oeste 0 969.6 0.4 69
2019-10-02 01:00:00 18.6 0 Calma 7 Oeste 0 969.9 1.3 67
2019-10-02 00:00:00 19.9 3 Oeste 11 Oeste 0 969.5 1.8 63
2019-10-01 23:00:00 21.3 5 Noroeste 15 Noroeste 0 969.2 1.9 59
2019-10-01 22:00:00 22.9 5 Noroeste 19 Noroeste 0 968.6 1.2 53
2019-10-01 21:00:00 24.6 10 Oeste 21 Oeste 0 967.7 0.6 41
2019-10-01 20:00:00 25.9 8 Oeste 23 Oeste 0 967.3 0 35
2019-10-01 19:00:00 27.4 11 Oeste 30 Oeste 0 967.4 0 32
2019-10-01 18:00:00 27.6 8 Oeste 29 Noroeste 0 967.1 -0.5 29
2019-10-01 17:00:00 28.3 14 Noroeste 31 Noroeste 0 967.3 -0.6 27
2019-10-01 16:00:00 28.4 14 Noroeste 30 Noroeste 0 967.4 -0.7 26
2019-10-01 15:00:00 27.9 12 Noroeste 30 Noroeste 0 967.6 -1 27
2019-10-01 14:00:00 27.9 12 Noroeste 26 Norte 0 967.9 -0.6 28
2019-10-01 13:00:00 27.1 10 Noroeste 18 Oeste 0 968.1 0 30
2019-10-01 12:00:00 24.6 0 Calma 9 Noroeste 0 968.6 0.8 44
2019-10-01 11:00:00 20.9 0 Calma 5 Sudeste 0 968.5 1 60
2019-10-01 10:00:00 17.1 0 Calma 4 Este 0 968.1 1 70
2019-10-01 09:00:00 15.1 0 Calma 0 Calma 0 967.8 0.6 75
2019-10-01 08:00:00 15.2 0 Calma 4 Noroeste 0 967.5 0.2 75
2019-10-01 07:00:00 15 0 Calma 6 Oeste 0 967.1 -0.8 76
2019-10-01 06:00:00 15.4 0 Calma 4 Oeste 0 967.2 -0.9 73
2019-10-01 05:00:00 16.2 2 Nordeste 6 Nordeste 0 967.3 -0.6 70
2019-10-01 04:00:00 17 0 Calma 5 Nordeste 0 967.9 0.1 67
2019-10-01 03:00:00 17.7 0 Calma 6 Noroeste 0 968.1 0.3 64
2019-10-01 02:00:00 18.7 0 Calma 8 Noroeste 0 967.9 -0.1 61
2019-10-01 01:00:00 20.2 0 Calma -- -- 0 967.8 -0.3 57
2019-10-01 00:00:00 22 0 Calma 4 Noroeste 0 967.8 0.1 50
2019-09-30 23:00:00 23.8 0 Calma 10 Noroeste 0 968 0.4 44
2019-09-30 22:00:00 24.9 0 Calma 0 Calma 0 968.1 0.7 41
2019-09-30 21:00:00 26.8 0 Calma 4 Nordeste 0 967.7 0.1 38
2019-09-30 20:00:00 28.8 0 Calma 10 Noroeste 0 967.6 -0.4 35
2019-09-30 19:00:00 30.1 0 Calma 10 Nordeste 0 967.4 -0.7 34
2019-09-30 18:00:00 30.3 3 Nordeste 9 Nordeste 0 967.6 -1.2 33
2019-09-30 17:00:00 30 2 Oeste -- -- -- 968 -1.7 34
2019-09-30 16:00:00 29.6 0 Calma -- -- -- 968.1 -1.9 37
2019-09-30 15:00:00 28.8 6 Noroeste 18 Noroeste 0 968.8 -1.8 40
2019-09-30 14:00:00 27.8 5 Nordeste 13 Nordeste 0 969.7 -0.9 44
2019-09-30 13:00:00 26.1 0 Calma 13 Este 0 970 -0.4 46
2019-09-30 12:00:00 24.8 0 Calma 6 Sudeste 0 970.6 0.5 54
2019-09-30 11:00:00 21 0 Calma 8 Este 0 970.6 0.8 64
2019-09-30 10:00:00 16.6 0 Calma 3 Este 0 970.4 0.8 75
2019-09-30 09:00:00 14.2 0 Calma -- -- 0 970.1 0.7 86
2019-09-30 08:00:00 14.4 0 Calma 2 Nordeste 0 969.8 0.2 84
2019-09-30 07:00:00 14.7 0 Calma -- -- 0 969.6 -0.4 82
2019-09-30 06:00:00 15.9 0 Calma 5 Noroeste 0 969.4 -0.9 79
2019-09-30 05:00:00 16.5 0 Calma 7 Noroeste 0 969.6 -0.7 76
2019-09-30 04:00:00 17 0 Calma 4 Nordeste 0 970 -0.4 73
2019-09-30 03:00:00 17.6 0 Calma 0 Calma 0 970.3 -0.1 70
2019-09-30 02:00:00 18.6 0 Calma 5 Nordeste 0 970.3 0.2 69
2019-09-30 01:00:00 19.9 3 Nordeste 6 Nordeste 0 970.4 0.4 67
2019-09-30 00:00:00 21.1 0 Calma 4 Noroeste 0 970.4 1 63
2019-09-29 23:00:00 22.9 0 Calma 7 Oeste 0 970.1 1 59
2019-09-29 22:00:00 23.5 3 Oeste 8 Oeste 0 970 1.2 57
2019-09-29 21:00:00 25.1 0 Calma 5 Sur 0 969.4 0.3 51
2019-09-29 20:00:00 27 3 Sur 16 Sudeste 0 969.1 -0.2 41
2019-09-29 19:00:00 28.8 6 Sudeste 21 Sudeste 0 968.8 -0.8 38
2019-09-29 18:00:00 30.2 7 Sudeste 20 Sudeste 0 969.1 -1.1 37
2019-09-29 17:00:00 30.9 0 Calma 19 Sudeste 0 969.3 -1.6 34
2019-09-29 16:00:00 30.4 10 Sudeste 24 Sudeste 0 969.6 -1.5 37
2019-09-29 15:00:00 30 6 Sur 26 Este 0 970.2 -1.2 35
2019-09-29 14:00:00 29.2 7 Sudeste 23 Sudeste 0 970.9 -0.4 39
2019-09-29 13:00:00 28.1 12 Sudeste 24 Sudeste 0 971.1 0.2 43
2019-09-29 12:00:00 26.1 0 Calma 10 Sur 0 971.4 1 46
2019-09-29 11:00:00 22.7 0 Calma 6 Sudoeste 0 971.3 1.3 56
2019-09-29 10:00:00 18 0 Calma 4 Este 0 970.9 1 69
2019-09-29 09:00:00 15.8 0 Calma 2 Sur 0 970.4 0.3 74
2019-09-29 08:00:00 15.9 0 Calma 7 Oeste 0 970 -0.3 70
2019-09-29 07:00:00 17 0 Calma 4 Oeste 0 969.9 -0.8 66
2019-09-29 06:00:00 17.5 0 Calma 6 Noroeste 0 970.1 -0.9 61
2019-09-29 05:00:00 19.3 5 Noroeste 12 Noroeste 0 970.3 -0.5 56
2019-09-29 04:00:00 19.9 4 Noroeste 15 Noroeste 0 970.7 -0.4 56
2019-09-29 03:00:00 21 3 Noroeste 19 Sur 0 971 -0.2 51
2019-09-29 02:00:00 21.7 6 Sur 18 Sudeste 0 970.8 -0.2 51
2019-09-29 01:00:00 21.4 3 Noroeste 10 Sur 0 971.1 0.7 55
2019-09-29 00:00:00 21.7 0 Calma 7 Sudoeste 0 971.2 1.2 52
2019-09-28 23:00:00 22.7 0 Calma 7 Sudoeste 0 971 1.2 49
2019-09-28 22:00:00 24 0 Calma 10 Sur 0 970.4 0.7 44
2019-09-28 21:00:00 25.3 3 Oeste 13 Sur 0 970 0.4 39
2019-09-28 20:00:00 27.1 4 Sur 20 Sudeste 0 969.8 0.2 37
2019-09-28 19:00:00 28.9 12 Sudeste 27 Sur 0 969.7 -0.2 35
2019-09-28 18:00:00 29.7 14 Sudeste 28 Sudeste 0 969.6 -0.8 34
2019-09-28 17:00:00 30.6 12 Sudeste 25 Sudeste 0 969.6 -1.6 34
2019-09-28 16:00:00 30.5 11 Sudeste 26 Este 0 969.9 -1.7 32
2019-09-28 15:00:00 30.9 10 Sudeste 25 Sudeste 0 970.4 -1.5 32
2019-09-28 14:00:00 29.7 2 Sur 14 Sudoeste 0 971.2 -1 34
2019-09-28 13:00:00 28.2 0 Calma 6 Sur 0 971.6 -0.3 39
2019-09-28 12:00:00 24.7 0 Calma 5 Sur 0 971.9 0.5 50
2019-09-28 11:00:00 20.5 0 Calma 4 Oeste 0 972.2 1.2 55
2019-09-28 10:00:00 16.2 0 Calma -- -- 0 971.9 1.4 69
2019-09-28 09:00:00 14 0 Calma 0 Calma 0 971.4 1.1 73
2019-09-28 08:00:00 13.3 0 Calma 3 Nordeste 0 971 0.6 73
2019-09-28 07:00:00 14 0 Calma 4 Oeste 0 970.5 -0.2 70
2019-09-28 06:00:00 15 0 Calma 5 Noroeste 0 970.3 -0.8 67
2019-09-28 05:00:00 15.3 0 Calma 2 Oeste 0 970.4 -0.9 65
2019-09-28 04:00:00 16.2 0 Calma 2 Nordeste 0 970.7 -0.8 59
2019-09-28 03:00:00 18 3 Nordeste 10 Norte 0 971.1 -0.4 54
2019-09-28 02:00:00 17.6 3 Nordeste 5 Nordeste 0 971.3 0.2 55
2019-09-28 01:00:00 19.5 0 Calma 6 Noroeste 0 971.5 0.9 48
2019-09-28 00:00:00 21.4 2 Noroeste 7 Oeste 0 971.5 1.5 43
2019-09-27 23:00:00 22.2 0 Calma 5 Sudeste 0 971.1 1.6 40
2019-09-27 22:00:00 23.2 0 Calma 10 Noroeste 0 970.6 1.3 39
2019-09-27 21:00:00 25.7 6 Noroeste 11 Noroeste 0 970 0.6 35
2019-09-27 20:00:00 27.9 0 Calma 12 Noroeste 0 969.5 -0.1 33
2019-09-27 19:00:00 30 3 Noroeste 17 Noroeste 0 969.3 -0.4 32
2019-09-27 18:00:00 30.2 5 Noroeste 17 Noroeste 0 969.4 -1 32
2019-09-27 17:00:00 30 4 Nordeste 15 Noroeste 0 969.6 -1.3 32
2019-09-27 16:00:00 29.7 3 Norte 13 Noroeste 0 969.7 -1.5 33
2019-09-27 15:00:00 28.9 0 Calma 8 Este 0 970.4 -1.2 35
2019-09-27 14:00:00 27.8 0 Calma 10 Oeste 0 970.9 -1.1 38
2019-09-27 13:00:00 26.7 0 Calma 9 Este 0 971.2 -0.5 40
2019-09-27 12:00:00 24.5 0 Calma 8 Este 0 971.6 -0.1 50
2019-09-27 11:00:00 20 0 Calma 3 Sudeste 0 972 0.7 70
2019-09-27 10:00:00 16.9 0 Calma 0 Calma 0 971.7 0.5 79
2019-09-27 09:00:00 14.4 0 Calma -- -- 0 971.7 0.6 85
2019-09-27 08:00:00 13.9 0 Calma 3 Noroeste 0 971.3 0.2 85
2019-09-27 07:00:00 14.9 0 Calma 4 Noroeste 0 971.2 0.1 85
2019-09-27 06:00:00 15.6 0 Calma 4 Nordeste 0 971.1 -0.2 81
2019-09-27 05:00:00 16.5 0 Calma -- -- 0 971.1 -0.1 81
2019-09-27 04:00:00 16.9 0 Calma 7 Noroeste 0 971.1 -0.4 80
2019-09-27 03:00:00 18.7 0 Calma 7 Oeste 0 971.3 -0.1 74
2019-09-27 02:00:00 18.5 2 Oeste 8 Sudoeste 0 971.2 0 72
2019-09-27 01:00:00 19.5 0 Calma 6 Oeste 0 971.5 0.7 66
2019-09-27 00:00:00 20.3 0 Calma 7 Sudoeste 0 971.4 1.3 62
2019-09-26 23:00:00 21.4 0 Calma 6 Oeste 0 971.2 1.4 58
2019-09-26 22:00:00 22.4 0 Calma 8 Sur 0 970.8 1.2 53
2019-09-26 21:00:00 24.2 0 Calma 9 Sudoeste 0 970.1 0.6 47
2019-09-26 20:00:00 25.9 4 Sur 15 Sur 0 969.8 0.1 43
2019-09-26 19:00:00 28.5 3 Sur 12 Sudeste 0 969.6 -0.5 38
2019-09-26 18:00:00 28.4 5 Sudeste 21 Sudeste 0 969.5 -0.8 38
2019-09-26 17:00:00 28.9 8 Sudeste 20 Sur 0 969.7 -1.2 38
2019-09-26 16:00:00 28.9 3 Sur 18 Sur 0 970.1 -1.4 37
2019-09-26 15:00:00 28.5 6 Sur 24 Sudeste 0 970.3 -1.3 39
2019-09-26 14:00:00 27.3 9 Sudeste 28 Este 0 970.9 -- 40
2019-09-26 13:00:00 26.7 13 Sudeste 24 Sudeste 0 971.5 0.2 44
2019-09-26 12:00:00 23.5 0 Calma 9 Este 0 971.6 0.8 50
2019-09-26 11:00:00 -- -- -- -- -- -- -- -- --
2019-09-26 10:00:00 15.5 0 Calma 5 Este 0 971.3 1.5 71
2019-09-26 09:00:00 12.9 0 Calma -- -- 0 970.8 1 79
2019-09-26 08:00:00 12.5 0 Calma 4 Nordeste 0 970.5 0.9 78
2019-09-26 07:00:00 12.6 0 Calma -- -- 0 969.8 0.3 76
2019-09-26 06:00:00 13.6 0 Calma -- -- 0 969.8 0.2 71
2019-09-26 05:00:00 14.2 0 Calma 3 Nordeste 0 969.6 -0.1 67
2019-09-26 04:00:00 14.8 0 Calma 5 Nordeste 0 969.5 -0.4 64
2019-09-26 03:00:00 15.8 0 Calma 4 Nordeste 0 969.6 -0.4 60
2019-09-26 02:00:00 17 0 Calma 5 Noroeste 0 969.7 -0.1 56
2019-09-26 01:00:00 18.6 0 Calma 6 Nordeste 0 969.9 0.6 50
2019-09-26 00:00:00 20.5 4 Noroeste 8 Noroeste 0 970 1.1 43
2019-09-25 23:00:00 20.7 0 Calma 6 Noroeste 0 969.8 1.1 44
2019-09-25 22:00:00 22.5 5 Noroeste 8 Noroeste 0 969.3 0.8 39
2019-09-25 21:00:00 23.9 0 Calma 11 Noroeste 0 968.9 0.4 40
2019-09-25 20:00:00 25.7 5 Noroeste 17 Oeste 0 968.7 0.2 37
2019-09-25 19:00:00 27.5 8 Noroeste 19 Noroeste 0 968.5 -0.3 35
2019-09-25 18:00:00 27.6 9 Noroeste 21 Noroeste 0 968.5 -0.9 34
2019-09-25 17:00:00 27.4 9 Noroeste 24 Noroeste 0 968.5 -1.4 35
2019-09-25 16:00:00 27.2 8 Noroeste -- -- -- 968.8 -1.8 38
2019-09-25 15:00:00 26.4 6 Oeste 16 Noroeste 0 969.4 -1.5 47
2019-09-25 14:00:00 25 3 Norte 16 Noroeste 0 969.9 -1 55
2019-09-25 13:00:00 24.1 4 Noroeste 16 Oeste 0 970.6 -0.1 59
2019-09-25 12:00:00 22.2 2 Nordeste 13 Nordeste 0 970.9 0.6 64
2019-09-25 11:00:00 20.1 0 Calma 5 Sudeste 0 970.9 1.1 65
2019-09-25 10:00:00 17.8 0 Calma 6 Nordeste 0 970.7 1 68
2019-09-25 09:00:00 15.2 0 Calma 2 Nordeste 0 970.3 0.4 75
2019-09-25 08:00:00 14.4 0 Calma -- -- 0 969.8 -0.2 75
2019-09-25 07:00:00 14.2 0 Calma 3 Este 0 969.7 -0.4 74
2019-09-25 06:00:00 15.5 0 Calma 7 Nordeste 0 969.9 -0.5 69
2019-09-25 05:00:00 15.7 3 Nordeste 6 Nordeste 0 970 -0.4 68
2019-09-25 04:00:00 16.7 0 Calma 0 Calma 0 970.1 -0.6 64
2019-09-25 03:00:00 17.8 0 Calma -- -- 0 970.4 -0.3 58
2019-09-25 02:00:00 18.8 0 Calma 9 Nordeste 0 970.4 0 52
2019-09-25 01:00:00 21 0 Calma 4 Norte 0 970.7 0.5 46
2019-09-25 00:00:00 20.9 0 Calma -- -- 0 970.7 0.9 43
2019-09-24 23:00:00 21.6 0 Calma 6 Noroeste 0 970.4 0.9 39
2019-09-24 22:00:00 24.1 0 Calma 9 Nordeste 0 970.2 0.7 34
2019-09-24 21:00:00 25.7 0 Calma 15 Noroeste 0 969.8 0.3 32
2019-09-24 20:00:00 27.6 0 Calma 15 Noroeste 0 969.5 -0.4 29
2019-09-24 19:00:00 29.7 8 Noroeste 16 Noroeste 0 969.5 -1.1 28
2019-09-24 18:00:00 29.7 0 Calma 15 Oeste 0 969.5 -1.5 29
2019-09-24 17:00:00 29.1 0 Calma 18 Norte 0 969.9 -2 31
2019-09-24 16:00:00 28.6 3 Norte 19 Noroeste 0 970.6 -2 30
2019-09-24 15:00:00 27.8 5 Noroeste 19 Noroeste 0 971 -2.2 33
2019-09-24 14:00:00 26.9 6 Noroeste 16 Noroeste 0 971.9 -1.4 35
2019-09-24 13:00:00 25.8 5 Nordeste 14 Este 0 972.6 0 39
2019-09-24 12:00:00 22.8 2 Este 8 Este 0 973.2 0.6 47
2019-09-24 11:00:00 18.8 0 Calma 3 Sudeste 0 973.3 1.3 64
2019-09-24 10:00:00 15.6 0 Calma 0 Calma 0 972.6 0.7 75
2019-09-24 09:00:00 13.3 0 Calma -- -- 0 972.6 0.8 81
2019-09-24 08:00:00 12.5 0 Calma 0 Calma 0 972 0.2 82
2019-09-24 07:00:00 13 0 Calma 3 Nordeste 0 971.9 0.2 81
2019-09-24 06:00:00 13.6 0 Calma -- -- 0 971.8 -0.2 78
2019-09-24 05:00:00 14.3 0 Calma 3 Nordeste 0 971.8 -0.2 75
2019-09-24 04:00:00 14.9 0 Calma 0 Calma 0 971.7 -0.6 72
2019-09-24 03:00:00 16.1 0 Calma -- -- 0 972 -0.2 67
2019-09-24 02:00:00 17.4 0 Calma 4 Oeste 0 972 -0.4 61
2019-09-24 01:00:00 18.3 3 Oeste 6 Oeste 0 972.3 0.2 55
2019-09-24 00:00:00 19 0 Calma 2 Oeste 0 972.2 0.6 51
2019-09-23 23:00:00 20.5 0 Calma 2 Oeste 0 972.4 1.2 47
2019-09-23 22:00:00 21.3 0 Calma 9 Noroeste 0 972.1 1.4 45
2019-09-23 21:00:00 23.4 2 Norte 10 Noroeste 0 971.6 0.7 38
2019-09-23 20:00:00 24.6 0 Calma 8 Norte 0 971.2 0.3 35
2019-09-23 19:00:00 25.9 3 Nordeste 10 Oeste 0 970.7 -0.5 32
2019-09-23 18:00:00 26.6 0 Calma 13 Norte 0 970.9 -0.4 32
2019-09-23 17:00:00 26.2 0 Calma 13 Noroeste 0 970.9 -0.8 33
2019-09-23 16:00:00 25.5 3 Oeste 17 Noroeste 0 971.2 -1.1 38
2019-09-23 15:00:00 25.1 2 Noroeste 14 Noroeste 0 971.3 -1.4 41
2019-09-23 14:00:00 24 0 Calma 14 Norte 0 971.7 -1.3 46
2019-09-23 13:00:00 22.6 3 Este 13 Nordeste 0 972.3 -0.4 51
2019-09-23 12:00:00 20.1 2 Nordeste 9 Este 0 972.7 0.4 62
2019-09-23 11:00:00 17.3 2 Oeste 8 Oeste 0 973 1.3 75
2019-09-23 10:00:00 14.2 3 Este 6 Este 0 972.7 1.4 82
2019-09-23 09:00:00 12.6 0 Calma 0 Calma 0 972.3 1.7 88
2019-09-23 08:00:00 12.2 0 Calma 5 Nordeste 0 971.7 1.2 88
2019-09-23 07:00:00 12.6 0 Calma 6 Oeste 0 971.3 0.8 86
2019-09-23 06:00:00 13.5 0 Calma 6 Nordeste 0 970.6 -0.2 85
2019-09-23 05:00:00 13.6 0 Calma 4 Sudeste 0 970.5 -0.3 84
2019-09-23 04:00:00 14.3 0 Calma 4 Nordeste 0 970.5 -0.6 80
2019-09-23 03:00:00 14.8 0 Calma 7 Nordeste 0 970.8 -0.2 75
2019-09-23 02:00:00 14.9 0 Calma 4 Este 0 970.8 0.1 73
2019-09-23 01:00:00 16.9 0 Calma 6 Este 0 971.1 1 63
2019-09-23 00:00:00 17.1 0 Calma 4 Este 0 971 1.6 61
2019-09-22 23:00:00 18.3 0 Calma 4 Oeste 0 970.7 -- 53
2019-09-22 22:00:00 19.2 2 Noroeste 5 Noroeste 0 970.1 1.5 51
2019-09-22 21:00:00 20.2 3 Noroeste 6 Noroeste 0 969.4 1.1 50
2019-09-22 20:00:00 -- 0 Calma 18 Oeste 0 -- -- --
2019-09-22 19:00:00 23.4 9 Noroeste 24 Oeste 0 968.6 0.7 37
2019-09-22 18:00:00 24 10 Noroeste 22 Noroeste 0 968.3 0.2 40
2019-09-22 17:00:00 24.1 12 Noroeste 27 Oeste 0 968 -0.5 45
2019-09-22 16:00:00 24.3 13 Oeste 39 Noroeste 0 967.9 -0.5 51
2019-09-22 15:00:00 24.5 8 Oeste 28 Oeste 0 968.1 -0.4 56
2019-09-22 14:00:00 23 10 Oeste 24 Noroeste 0 968.5 -0.2 62
2019-09-22 13:00:00 22.5 6 Noroeste 13 Noroeste 0 968.4 0 62
2019-09-22 12:00:00 21.5 0 Calma 6 Nordeste 0 968.5 1 68
2019-09-22 11:00:00 18.7 0 Calma -- -- -- 968.7 1.4 81
2019-09-22 10:00:00 17.1 0 Calma 3 Este 0 968.4 1.4 87
2019-09-22 09:00:00 16.3 0 Calma 3 Oeste 0 967.5 0.8 91
2019-09-22 08:00:00 15.6 0 Calma -- -- 0 967.3 0.6 91
2019-09-22 07:00:00 16.1 0 Calma 8 Noroeste 0 967 -0.3 91
2019-09-22 06:00:00 16.4 0 Calma 10 Nordeste 0 966.7 -0.5 88
2019-09-22 05:00:00 16.9 0 Calma 4 Este 0 966.7 -0.8 87
2019-09-22 04:00:00 17.6 0 Calma -- -- 0 967.3 -0.1 85
2019-09-22 03:00:00 18.2 0 Calma 2 Norte 0 967.2 -0.1 82
2019-09-22 02:00:00 18.7 0 Calma 6 Noroeste 0 967.5 -0.1 81
2019-09-22 01:00:00 19.2 0 Calma 8 Oeste 0 967.4 0.3 76
2019-09-22 00:00:00 19.4 0 Calma 5 Este 0 967.3 0.8 74
2019-09-21 23:00:00 20 0 Calma 4 Este 0 967.6 1.5 70
2019-09-21 22:00:00 20.5 0 Calma 0 Calma 0 967.1 1.1 67
2019-09-21 21:00:00 20.8 0 Calma 5 Noroeste 0 966.5 0.7 65
2019-09-21 20:00:00 21.7 0 Calma 14 Noroeste 0 966.1 0.1 62
2019-09-21 19:00:00 22 5 Noroeste 12 Noroeste 0 966 0 70
2019-09-21 18:00:00 23.3 6 Noroeste -- -- -- 965.8 -0.5 61
2019-09-21 17:00:00 24.2 4 Sur 16 Sur 0 966 -0.8 57
2019-09-21 16:00:00 24.2 4 Sur 17 Sur 0 966 -1.1 53
2019-09-21 15:00:00 24.5 7 Sur 20 Sur 0 966.3 -0.9 51
2019-09-21 14:00:00 23.7 5 Sur 19 Sur 0 966.8 -0.4 55
2019-09-21 13:00:00 22.8 4 Sur 13 Sur 0 967.1 0.3 62
2019-09-21 12:00:00 20.4 0 Calma 6 Noroeste 0 967.2 0.5 80
2019-09-21 11:00:00 19.7 0 Calma 9 Este 0 967.2 1.2 83
2019-09-21 10:00:00 18.7 3 Nordeste 10 Nordeste 0 966.8 0.9 86
2019-09-21 09:00:00 18.2 3 Nordeste 14 Este 0 966.7 0.6 88
2019-09-21 08:00:00 18.1 3 Este 11 Este 0 966 0.2 88
2019-09-21 07:00:00 18.2 4 Nordeste 11 Noroeste 0 965.9 -0.1 88
2019-09-21 06:00:00 18.2 5 Noroeste 17 Noroeste 0 966.1 -0.2 87
2019-09-21 05:00:00 20.1 0 Calma 7 Oeste 0 965.8 -0.7 84
2019-09-21 04:00:00 20.3 4 Noroeste 13 Sur 0 966 -1 84
2019-09-21 03:00:00 20.8 0 Calma 16 Sudoeste 0 966.3 -0.7 79
2019-09-21 02:00:00 20.9 5 Sur 18 Sudoeste 0 966.5 -0.6 78
2019-09-21 01:00:00 21 6 Sur 30 Sur 0 967 0.1 76
2019-09-21 00:00:00 21.2 4 Sur 28 Sur 0 967 0.5 77
2019-09-20 23:00:00 21.1 14 Sur 29 Sur 0 967.1 0.7 78
2019-09-20 22:00:00 21.1 13 Sur 25 Sur 0 966.9 0.2 76
2019-09-20 21:00:00 21.4 6 Sur 19 Sudeste 0 966.5 0.1 73
2019-09-20 20:00:00 22.1 6 Sur 19 Sur 0 966.4 0.1 69
2019-09-20 19:00:00 22.5 8 Sur 27 Sudeste 0 966.7 0.4 68
2019-09-20 18:00:00 22.7 13 Sur 29 Sudeste 0 966.4 -0.5 65
2019-09-20 17:00:00 23 12 Sudeste 34 Sudeste 0 966.3 -0.8 65
2019-09-20 16:00:00 23.2 18 Sudeste 33 Sudeste 0 966.3 -1.3 64
2019-09-20 15:00:00 23.4 15 Sudeste 38 Sudeste 0 966.9 -1.1 63
2019-09-20 14:00:00 23.8 17 Sudeste 34 Sudeste 0 967.1 -1 62
2019-09-20 13:00:00 23.3 16 Sudeste 37 Sudeste 0 967.6 -0.2 65
2019-09-20 12:00:00 23 15 Sudeste 32 Sur 0 968 1 69
2019-09-20 11:00:00 21.7 8 Sudeste 27 Sur 0 968.1 1.3 74
2019-09-20 10:00:00 21.1 10 Sudeste 28 Sudeste 0 967.8 1.2 76
2019-09-20 09:00:00 20.4 12 Sudeste 33 Sudeste 0 967 0.1 81
2019-09-20 08:00:00 20.4 9 Sudeste 23 Este 0 966.8 -0.8 80
2019-09-20 07:00:00 20.2 8 Este 19 Sudeste 0 966.6 -1 81
2019-09-20 06:00:00 20.3 7 Sudeste 28 Este 0 966.9 -1.3 81
2019-09-20 05:00:00 20.3 7 Sudeste 28 Sudeste 0 967.6 -0.7 79
2019-09-20 04:00:00 20.7 11 Sudeste 35 Sur 0 967.6 -0.6 74
2019-09-20 03:00:00 20.9 8 Sudeste 23 Este 0 968.2 0.1 70
2019-09-20 02:00:00 21.5 10 Sudeste 22 Sudeste 0 968.3 0.3 59
2019-09-20 01:00:00 21.7 3 Sur 21 Sudeste 0 968.2 0.4 54
2019-09-20 00:00:00 21.9 5 Sur 22 Sur 0 968.1 0.7 55
2019-09-19 23:00:00 22.9 8 Sur 21 Sur 0 968 0.9 52
2019-09-19 22:00:00 23.1 8 Sur 22 Sur 0 967.8 1 50
2019-09-19 21:00:00 23.7 8 Sudeste 21 Sudeste 0 967.4 0.6 49
2019-09-19 20:00:00 25.1 9 Sur 22 Sur 0 967.1 0.2 44
2019-09-19 19:00:00 26.6 7 Sur 23 Sur 0 966.8 -0.3 43
2019-09-19 18:00:00 27.4 8 Sur 21 Sur 0 966.8 -0.9 40
2019-09-19 17:00:00 27.7 7 Sur 22 Sudeste 0 966.9 -1.5 39
2019-09-19 16:00:00 28.2 4 Sur 26 Sudeste 0 967.1 -1.6 39
2019-09-19 15:00:00 27.7 12 Sudeste 31 Sur 0 967.7 -1.3 39
2019-09-19 14:00:00 27.7 7 Sur 19 Sur 0 968.4 -0.8 40
2019-09-19 13:00:00 25 0 Calma 7 Oeste 0 968.7 -- 52
2019-09-19 12:00:00 22.6 0 Calma 6 Este 0 969 0 62
2019-09-19 11:00:00 19.4 0 Calma 4 Sur 0 969.2 0.4 74
2019-09-19 10:00:00 -- 0 Calma 4 Este 0 -- -- --
2019-09-19 09:00:00 16.6 0 Calma 5 Nordeste 0 969 0.7 86
2019-09-19 08:00:00 16 0 Calma 5 Nordeste 0 968.8 0.3 88
2019-09-19 07:00:00 16.2 0 Calma 9 Nordeste 0 968.5 -0.1 86
2019-09-19 06:00:00 16.5 5 Nordeste 9 Nordeste 0 968.3 -0.7 84
2019-09-19 05:00:00 17.2 0 Calma 4 Nordeste 0 968.5 -0.4 81
2019-09-19 04:00:00 17.4 0 Calma -- -- 0 968.6 -0.4 82
2019-09-19 03:00:00 18.1 0 Calma 4 Nordeste 0 969 -0.1 78
2019-09-19 02:00:00 19 0 Calma 0 Calma 0 968.9 0 74
2019-09-19 01:00:00 19.8 0 Calma -- -- 0 969 0.6 67
2019-09-19 00:00:00 21.1 0 Calma 5 Oeste 0 969.1 1.1 59
2019-09-18 23:00:00 22.1 0 Calma 7 Noroeste 0 968.9 1.4 56
2019-09-18 22:00:00 23.2 0 Calma 10 Noroeste 0 968.4 1.1 52
2019-09-18 21:00:00 24.5 0 Calma 9 Noroeste 0 968 0.7 48
2019-09-18 20:00:00 25.6 0 Calma 13 Nordeste 0 967.5 0.2 46
2019-09-18 19:00:00 26.5 5 Nordeste 16 Norte 0 967.3 -0.5 45
2019-09-18 18:00:00 26.9 0 Calma 17 Norte 0 967.3 -1 47
2019-09-18 17:00:00 27.3 4 Noroeste 16 Noroeste 0 967.3 -1.3 45
2019-09-18 16:00:00 26.5 5 Noroeste 15 Noroeste 0 967.8 -1.2 44
2019-09-18 15:00:00 25.6 6 Oeste 16 Noroeste 0 968.3 -0.9 49
2019-09-18 14:00:00 24.9 4 Noroeste 15 Noroeste 0 968.6 -0.5 55
2019-09-18 13:00:00 24 3 Nordeste 12 Este 0 969 0.2 59
2019-09-18 12:00:00 22.1 5 Nordeste 12 Este 0 969.2 0.8 70
2019-09-18 11:00:00 20 0 Calma 5 Sudeste 0 969.1 1.3 82
2019-09-18 10:00:00 17 0 Calma -- -- 0 968.8 1.3 92
2019-09-18 09:00:00 16.7 0 Calma 3 Oeste 0 968.4 0.9 91
2019-09-18 08:00:00 16.5 0 Calma 6 Oeste 0 967.8 0.2 91
2019-09-18 07:00:00 16.8 3 Nordeste 10 Nordeste 0 967.5 -0.1 91
2019-09-18 06:00:00 16.7 5 Nordeste 12 Nordeste 0 967.5 -0.6 92
2019-09-18 05:00:00 17.7 10 Nordeste 14 Nordeste 0 967.6 -0.7 88
2019-09-18 04:00:00 18 0 Calma 8 Nordeste 0 967.6 -0.7 85
2019-09-18 03:00:00 19.3 0 Calma 9 Este 0 968.1 -0.1 84
2019-09-18 02:00:00 19.8 4 Este 11 Sudeste 0 968.3 0.5 84
2019-09-18 01:00:00 20.4 0 Calma 9 Noroeste 0 968.3 1.2 81
2019-09-18 00:00:00 20.9 0 Calma 6 Noroeste 0 968.2 1.5 73
2019-09-17 23:00:00 21.4 0 Calma 4 Sudoeste 0 967.8 1.1 68
2019-09-17 22:00:00 22.1 0 Calma 7 Sudoeste 0 967.1 0.4 61
2019-09-17 21:00:00 23 3 Oeste 20 Sur 0 966.7 -0.6 53